createdAt,value
2022-08-26T00:01:57.029Z,7.97
2022-08-26T00:04:26.148Z,8.48
2022-08-26T00:06:55.670Z,8.70
2022-08-26T00:09:24.645Z,10.02
2022-08-26T00:11:53.898Z,9.60
2022-08-26T00:14:25.036Z,11.80
2022-08-26T00:16:55.432Z,13.73
2022-08-26T00:19:22.839Z,13.18
2022-08-26T00:21:50.640Z,12.73
2022-08-26T00:24:20.888Z,13.25
2022-08-26T00:26:49.163Z,12.20
2022-08-26T00:29:17.192Z,11.18
2022-08-26T00:31:45.662Z,11.43
2022-08-26T00:34:15.345Z,11.65
2022-08-26T00:36:43.803Z,14.05
2022-08-26T00:39:11.112Z,14.57
2022-08-26T00:41:40.997Z,14.40
2022-08-26T00:44:11.240Z,14.90
2022-08-26T00:46:47.181Z,15.52
2022-08-26T00:49:37.613Z,17.52
2022-08-26T00:52:09.721Z,16.48
2022-08-26T00:54:46.809Z,16.77
2022-08-26T00:57:18.378Z,16.45
2022-08-26T00:59:52.110Z,16.25
2022-08-26T01:02:20.050Z,15.23
2022-08-26T01:04:55.451Z,16.52
2022-08-26T01:07:26.260Z,16.50
2022-08-26T01:09:56.508Z,17.05
2022-08-26T01:12:25.877Z,15.88
2022-08-26T01:14:53.078Z,14.77
2022-08-26T01:17:20.170Z,15.38
2022-08-26T01:19:54.655Z,16.00
2022-08-26T01:22:31.655Z,15.57
2022-08-26T01:25:04.566Z,16.33
2022-08-26T01:27:33.551Z,16.58
2022-08-26T01:30:02.456Z,16.02
2022-08-26T01:32:33.623Z,15.35
2022-08-26T01:35:01.630Z,15.57
2022-08-26T01:37:36.444Z,16.15
2022-08-26T01:40:08.324Z,15.15
2022-08-26T01:42:35.693Z,16.63
2022-08-26T01:45:14.761Z,16.95
2022-08-26T01:47:43.130Z,16.58
2022-08-26T01:50:28.144Z,15.80
2022-08-26T01:53:02.923Z,15.82
2022-08-26T01:55:34.104Z,16.27
2022-08-26T01:58:10.669Z,16.55
2022-08-26T02:00:39.238Z,16.15
2022-08-26T02:03:17.380Z,16.45
2022-08-26T02:05:53.325Z,15.15
2022-08-26T02:08:32.892Z,16.90
2022-08-26T02:11:00.438Z,15.93
2022-08-26T02:13:31.492Z,17.13
2022-08-26T02:16:01.154Z,18.58
2022-08-26T02:18:34.247Z,17.70
2022-08-26T02:21:01.553Z,16.80
2022-08-26T02:23:28.751Z,17.40
2022-08-26T02:26:04.878Z,16.70
2022-08-26T02:28:40.008Z,16.70
2022-08-26T02:31:07.915Z,17.10
2022-08-26T02:33:35.227Z,16.02
2022-08-26T02:36:03.612Z,17.08
2022-08-26T02:38:30.729Z,16.58
2022-08-26T02:40:57.815Z,16.70
2022-08-26T02:43:31.329Z,17.88
2022-08-26T02:48:28.741Z,18.13
2022-08-26T02:50:55.789Z,17.63
2022-08-26T02:53:25.456Z,17.35
2022-08-26T02:55:52.992Z,17.30
2022-08-26T02:58:20.646Z,17.30
2022-08-26T03:00:52.799Z,15.90
2022-08-26T03:03:22.498Z,19.08
2022-08-26T03:05:52.401Z,18.95
2022-08-26T03:08:20.441Z,18.83
2022-08-26T03:10:48.537Z,19.15
2022-08-26T03:13:18.157Z,18.42
2022-08-26T03:15:45.954Z,19.40
2022-08-26T03:18:15.014Z,20.17
2022-08-26T03:20:42.100Z,21.10
2022-08-26T03:23:11.067Z,20.42
2022-08-26T03:25:38.674Z,21.20
2022-08-26T03:28:05.969Z,23.33
2022-08-26T03:30:44.847Z,22.52
2022-08-26T03:33:13.790Z,22.25
2022-08-26T03:35:43.744Z,22.63
2022-08-26T03:38:11.479Z,23.90
2022-08-26T03:40:39.901Z,22.98
2022-08-26T03:43:09.571Z,23.42
2022-08-26T03:45:37.798Z,23.05
2022-08-26T03:48:05.826Z,21.13
2022-08-26T03:50:34.347Z,21.80
2022-08-26T03:53:04.234Z,24.63
2022-08-26T03:55:34.603Z,23.42
2022-08-26T03:58:03.181Z,23.27
2022-08-26T04:00:31.074Z,24.50
2022-08-26T04:02:58.118Z,22.10
2022-08-26T04:05:25.413Z,24.38
2022-08-26T04:07:52.972Z,23.60
2022-08-26T04:10:29.025Z,25.35
2022-08-26T04:12:59.303Z,23.65
2022-08-26T04:15:27.546Z,23.90
2022-08-26T04:17:56.055Z,22.23
2022-08-26T04:20:25.336Z,23.38
2022-08-26T04:22:52.428Z,26.33
2022-08-26T04:25:20.497Z,26.58
2022-08-26T04:27:48.311Z,25.27
2022-08-26T04:30:16.012Z,25.30
2022-08-26T04:32:44.082Z,25.23
2022-08-26T04:35:11.245Z,26.58
2022-08-26T04:37:38.585Z,25.38
2022-08-26T04:40:06.836Z,23.48
2022-08-26T04:42:34.330Z,24.90
2022-08-26T04:45:02.083Z,24.40
2022-08-26T04:47:33.012Z,24.35
2022-08-26T04:50:00.331Z,25.55
2022-08-26T04:52:29.312Z,25.40
2022-08-26T04:54:58.169Z,25.13
2022-08-26T04:57:25.244Z,24.00
2022-08-26T04:59:53.167Z,25.80
2022-08-26T05:02:20.679Z,25.42
2022-08-26T05:04:47.639Z,26.35
2022-08-26T05:07:18.914Z,24.15
2022-08-26T05:09:48.197Z,24.85
2022-08-26T05:12:15.225Z,25.33
2022-08-26T05:14:43.492Z,26.15
2022-08-26T05:17:10.507Z,25.52
2022-08-26T05:19:43.013Z,24.83
2022-08-26T05:22:10.446Z,26.77
2022-08-26T05:24:41.300Z,25.70
2022-08-26T05:27:11.752Z,25.05
2022-08-26T05:29:40.711Z,25.10
2022-08-26T05:32:07.966Z,23.42
2022-08-26T05:34:37.506Z,24.20
2022-08-26T05:37:06.256Z,22.60
2022-08-26T05:39:33.931Z,17.92
2022-08-26T05:42:01.350Z,16.60
2022-08-26T05:44:29.304Z,14.88
2022-08-26T05:47:16.434Z,12.35
2022-08-26T05:49:49.256Z,11.95
2022-08-26T05:52:19.644Z,11.20
2022-08-26T05:54:47.692Z,10.88
2022-08-26T05:57:15.795Z,10.90
2022-08-26T05:59:42.817Z,10.77
2022-08-26T06:02:10.013Z,11.48
2022-08-26T06:04:37.010Z,10.52
2022-08-26T06:07:04.145Z,10.82
2022-08-26T06:09:32.967Z,10.20
2022-08-26T06:12:01.904Z,10.02
2022-08-26T06:14:30.670Z,10.07
2022-08-26T06:16:57.992Z,10.77
2022-08-26T06:19:25.729Z,10.35
2022-08-26T06:22:23.327Z,9.30
2022-08-26T06:25:09.902Z,9.65
2022-08-26T06:27:37.113Z,10.43
2022-08-26T06:30:04.753Z,10.57
2022-08-26T06:32:31.792Z,10.30
2022-08-26T06:34:59.183Z,10.10
2022-08-26T06:37:26.159Z,10.57
2022-08-26T06:39:53.144Z,10.23
2022-08-26T06:42:20.364Z,10.00
2022-08-26T06:44:47.781Z,9.95
2022-08-26T06:47:15.167Z,10.02
2022-08-26T06:49:42.118Z,8.35
2022-08-26T06:52:11.342Z,9.70
2022-08-26T06:54:43.107Z,9.70
2022-08-26T06:57:12.777Z,8.10
2022-08-26T06:59:41.252Z,10.55
2022-08-26T07:02:08.633Z,10.25
2022-08-26T07:04:41.063Z,9.45
2022-08-26T07:07:09.668Z,8.70
2022-08-26T07:09:37.471Z,9.63
2022-08-26T07:12:07.810Z,34.72
2022-08-26T07:14:36.978Z,8.63
2022-08-26T07:17:04.409Z,8.85
2022-08-26T07:19:31.933Z,9.47
2022-08-26T07:22:03.535Z,9.88
2022-08-26T07:24:37.503Z,8.75
2022-08-26T07:27:09.696Z,7.90
2022-08-26T07:29:39.435Z,10.23
2022-08-26T07:32:07.080Z,10.05
2022-08-26T07:34:34.683Z,10.50
2022-08-26T07:37:02.023Z,9.93
2022-08-26T07:39:31.595Z,9.07
2022-08-26T07:42:07.725Z,10.23
2022-08-26T07:44:37.695Z,12.02
2022-08-26T07:47:24.556Z,12.57
2022-08-26T07:49:54.507Z,9.10
2022-08-26T07:52:26.377Z,9.15
2022-08-26T07:54:58.572Z,9.52
2022-08-26T07:57:27.208Z,9.45
2022-08-26T07:59:55.506Z,10.20
2022-08-26T08:02:23.740Z,10.23
2022-08-26T08:04:51.837Z,10.88
2022-08-26T08:07:18.992Z,77.95
2022-08-26T08:09:49.433Z,36.42
2022-08-26T08:12:19.160Z,9.88
2022-08-26T08:14:46.935Z,11.43
2022-08-26T08:17:16.181Z,9.90
2022-08-26T08:19:43.435Z,9.40
2022-08-26T08:22:17.343Z,9.52
2022-08-26T08:24:50.016Z,9.13
2022-08-26T08:27:23.648Z,9.10
2022-08-26T08:29:55.029Z,9.90
2022-08-26T08:32:23.437Z,10.00
2022-08-26T08:34:50.444Z,9.00
2022-08-26T08:37:17.583Z,9.45
2022-08-26T08:39:44.593Z,9.80
2022-08-26T08:42:30.894Z,9.82
2022-08-26T08:45:04.761Z,9.27
2022-08-26T08:47:47.446Z,10.20
2022-08-26T08:50:35.842Z,10.07
2022-08-26T08:53:15.150Z,11.05
2022-08-26T08:55:50.817Z,11.85
2022-08-26T08:58:21.729Z,11.40
2022-08-26T09:01:00.890Z,10.38
2022-08-26T09:04:18.405Z,10.13
2022-08-26T09:06:47.480Z,10.95
2022-08-26T09:09:24.666Z,11.52
2022-08-26T09:11:52.574Z,11.30
2022-08-26T09:14:19.705Z,12.07
2022-08-26T09:17:09.879Z,10.50
2022-08-26T09:19:48.101Z,10.57
2022-08-26T09:22:36.545Z,11.15
2022-08-26T09:25:11.153Z,11.15
2022-08-26T09:27:41.496Z,10.20
2022-08-26T09:30:12.796Z,11.02
2022-08-26T09:32:40.461Z,10.90
2022-08-26T09:35:26.371Z,10.05
2022-08-26T09:37:53.738Z,9.48
2022-08-26T09:40:34.680Z,8.50
2022-08-26T09:43:10.212Z,9.60
2022-08-26T09:45:41.378Z,8.95
2022-08-26T09:48:37.744Z,10.35
2022-08-26T09:51:32.085Z,9.98
2022-08-26T09:54:02.799Z,9.68
2022-08-26T09:56:34.993Z,10.18
2022-08-26T09:59:04.607Z,9.93
2022-08-26T10:01:43.812Z,10.63
2022-08-26T10:04:21.041Z,10.77
2022-08-26T10:07:08.166Z,9.35
2022-08-26T10:09:45.839Z,9.75
2022-08-26T10:12:21.227Z,9.52
2022-08-26T10:14:55.653Z,8.90
2022-08-26T10:17:32.289Z,9.23
2022-08-26T10:20:24.165Z,8.95
2022-08-26T10:23:18.164Z,10.10
2022-08-26T10:25:59.753Z,9.50
2022-08-26T10:28:44.394Z,7.95
2022-08-26T10:31:41.311Z,7.50
2022-08-26T10:34:09.794Z,6.93
2022-08-26T10:37:13.604Z,6.43
2022-08-26T10:39:57.139Z,5.80
2022-08-26T10:42:37.564Z,6.40
2022-08-26T10:45:14.830Z,6.60
2022-08-26T10:47:57.539Z,5.30
2022-08-26T10:50:33.548Z,6.18
2022-08-26T10:54:01.043Z,5.72
2022-08-26T10:56:32.738Z,4.75
2022-08-26T10:59:06.015Z,5.13
2022-08-26T11:01:51.040Z,3.75
2022-08-26T11:04:35.747Z,4.72
2022-08-26T11:07:44.311Z,4.63
2022-08-26T11:10:20.779Z,3.53
2022-08-26T11:12:53.957Z,3.83
2022-08-26T11:15:24.751Z,4.15
2022-08-26T11:17:52.078Z,3.92
2022-08-26T11:20:44.894Z,3.67
2022-08-26T11:23:12.952Z,2.95
2022-08-26T11:26:05.220Z,2.80
2022-08-26T11:28:51.716Z,2.22
2022-08-26T11:31:19.129Z,2.08
2022-08-26T11:33:58.113Z,1.88
2022-08-26T11:36:49.145Z,2.20
2022-08-26T11:39:54.081Z,1.42
2022-08-26T11:42:49.228Z,1.45
2022-08-26T11:45:22.989Z,2.10
2022-08-26T11:47:50.884Z,1.30
2022-08-26T11:50:36.076Z,1.20
2022-08-26T11:53:06.382Z,2.72
2022-08-26T11:55:42.608Z,2.80
2022-08-26T11:58:12.713Z,2.60
2022-08-26T12:00:46.399Z,1.67
2022-08-26T12:03:23.027Z,1.65
2022-08-26T12:05:52.514Z,1.08
2022-08-26T12:08:27.798Z,2.95
2022-08-26T12:11:09.202Z,2.10
2022-08-26T12:13:39.044Z,2.20
2022-08-26T12:16:06.989Z,2.13
2022-08-26T12:18:39.162Z,2.30
2022-08-26T12:21:24.544Z,2.13
2022-08-26T12:23:55.853Z,2.28
2022-08-26T12:26:36.408Z,2.20
2022-08-26T12:29:26.632Z,2.28
2022-08-26T12:32:14.794Z,1.45
2022-08-26T12:34:44.613Z,2.08
2022-08-26T12:37:14.161Z,2.20
2022-08-26T12:39:44.595Z,1.73
2022-08-26T12:42:17.199Z,2.70
2022-08-26T12:45:03.753Z,2.30
2022-08-26T12:47:43.955Z,1.95
2022-08-26T12:50:28.827Z,2.42
2022-08-26T12:53:31.244Z,2.10
2022-08-26T12:56:03.722Z,1.60
2022-08-26T12:58:37.129Z,1.80
2022-08-26T13:03:33.941Z,2.40
2022-08-26T13:06:29.748Z,1.55
2022-08-26T13:09:08.774Z,2.47
2022-08-26T13:11:59.292Z,2.05
2022-08-26T13:14:29.101Z,1.90
2022-08-26T13:16:56.045Z,1.70
2022-08-26T13:19:25.605Z,1.75
2022-08-26T13:22:00.576Z,1.63
2022-08-26T13:24:37.172Z,1.92
2022-08-26T13:27:08.196Z,2.00
2022-08-26T13:29:35.294Z,1.48
2022-08-26T13:32:05.070Z,1.58
2022-08-26T13:34:32.958Z,1.58
2022-08-26T13:37:00.077Z,1.92
2022-08-26T13:39:27.347Z,2.05
2022-08-26T13:41:54.824Z,1.80
2022-08-26T13:44:21.946Z,1.85
2022-08-26T13:46:49.315Z,1.92
2022-08-26T13:49:16.386Z,1.90
2022-08-26T13:51:43.611Z,1.58
2022-08-26T13:54:10.678Z,2.15
2022-08-26T13:56:37.705Z,1.67
2022-08-26T13:59:06.512Z,1.48
2022-08-26T14:01:35.497Z,1.85
2022-08-26T14:04:03.284Z,1.42
2022-08-26T14:06:30.841Z,1.80
2022-08-26T14:08:58.145Z,1.50
2022-08-26T14:11:25.277Z,1.98
2022-08-26T14:13:52.443Z,1.40
2022-08-26T14:16:34.438Z,1.83
2022-08-26T14:19:02.490Z,1.52
2022-08-26T14:21:32.639Z,1.67
2022-08-26T14:24:01.014Z,1.70
2022-08-26T14:26:29.794Z,1.65
2022-08-26T14:28:59.550Z,1.98
2022-08-26T14:31:29.423Z,1.73
2022-08-26T14:34:04.640Z,1.60
2022-08-26T14:36:33.113Z,1.85
2022-08-26T14:39:10.709Z,2.15
2022-08-26T14:41:57.035Z,1.70
2022-08-26T14:44:32.044Z,3.08
2022-08-26T14:47:02.630Z,3.50
2022-08-26T14:49:31.323Z,3.13
2022-08-26T14:52:00.939Z,1.75
2022-08-26T14:54:29.488Z,1.88
2022-08-26T14:57:07.619Z,2.30
2022-08-26T14:59:42.256Z,2.25
2022-08-26T15:02:27.747Z,1.50
2022-08-26T15:05:02.673Z,2.42
2022-08-26T15:07:30.032Z,2.22
2022-08-26T15:09:57.835Z,2.33
2022-08-26T15:12:24.886Z,2.08
2022-08-26T15:14:52.477Z,2.08
2022-08-26T15:17:20.135Z,1.98
2022-08-26T15:19:47.404Z,1.90
2022-08-26T15:22:14.406Z,1.85
2022-08-26T15:24:41.554Z,1.73
2022-08-26T15:27:09.076Z,1.88
2022-08-26T15:29:36.713Z,2.30
2022-08-26T15:32:04.625Z,1.83
2022-08-26T15:34:32.371Z,1.75
2022-08-26T15:36:59.709Z,2.00
2022-08-26T15:39:27.269Z,1.75
2022-08-26T15:41:56.156Z,1.80
2022-08-26T15:44:25.104Z,1.73
2022-08-26T15:46:56.562Z,2.33
2022-08-26T15:51:52.736Z,1.35
2022-08-26T15:54:23.333Z,1.38
2022-08-26T15:56:52.174Z,1.38
2022-08-26T15:59:21.497Z,1.70
2022-08-26T16:01:48.676Z,1.38
2022-08-26T16:04:15.925Z,2.65
2022-08-26T16:06:43.636Z,1.83
2022-08-26T16:09:11.475Z,1.85
2022-08-26T16:11:39.463Z,0.82
2022-08-26T16:14:07.207Z,1.17
2022-08-26T16:16:39.311Z,1.00
2022-08-26T16:19:08.232Z,0.95
2022-08-26T16:21:35.985Z,0.60
2022-08-26T16:24:04.141Z,0.77
2022-08-26T16:26:34.418Z,1.30
2022-08-26T16:29:06.767Z,0.80
2022-08-26T16:31:35.534Z,0.60
2022-08-26T16:34:02.810Z,1.00
2022-08-26T16:36:29.989Z,1.23
2022-08-26T16:38:57.052Z,0.90
2022-08-26T16:41:29.606Z,1.20
2022-08-26T16:43:57.586Z,1.23
2022-08-26T16:46:28.700Z,0.80
2022-08-26T16:48:57.787Z,1.52
2022-08-26T16:51:27.855Z,1.00
2022-08-26T16:53:56.948Z,1.20
2022-08-26T16:56:33.401Z,1.13
2022-08-26T16:59:06.615Z,1.80
2022-08-26T17:01:34.172Z,1.67
2022-08-26T17:04:01.379Z,2.10
2022-08-26T17:06:28.729Z,1.63
2022-08-26T17:08:55.936Z,1.40
2022-08-26T17:11:23.657Z,1.75
2022-08-26T17:13:51.061Z,1.80
2022-08-26T17:16:18.421Z,1.73
2022-08-26T17:18:45.749Z,1.73
2022-08-26T17:21:13.860Z,2.10
2022-08-26T17:23:42.915Z,1.70
2022-08-26T17:26:12.370Z,1.58
2022-08-26T17:28:40.609Z,1.38
2022-08-26T17:31:11.188Z,1.48
2022-08-26T17:33:39.745Z,1.88
2022-08-26T17:36:09.372Z,1.80
2022-08-26T17:38:38.211Z,2.25
2022-08-26T17:41:11.109Z,1.20
2022-08-26T17:43:39.316Z,1.30
2022-08-26T17:46:10.813Z,1.13
2022-08-26T17:48:40.861Z,1.50
2022-08-26T17:51:12.502Z,1.65
2022-08-26T17:53:41.373Z,0.95
2022-08-26T17:56:14.947Z,1.75
2022-08-26T17:58:51.020Z,1.23
2022-08-26T18:01:20.804Z,0.88
2022-08-26T18:03:48.765Z,1.52
2022-08-26T18:06:15.837Z,1.15
2022-08-26T18:08:43.985Z,1.30
2022-08-26T18:11:14.776Z,1.10
2022-08-26T18:13:47.005Z,1.77
2022-08-26T18:16:17.511Z,1.42
2022-08-26T18:18:45.627Z,1.48
2022-08-26T18:21:16.986Z,1.35
2022-08-26T18:23:45.644Z,1.95
2022-08-26T18:26:33.635Z,1.33
2022-08-26T18:29:01.102Z,1.85
2022-08-26T18:31:29.585Z,2.15
2022-08-26T18:33:57.221Z,2.40
2022-08-26T18:36:32.850Z,3.28
2022-08-26T18:39:01.266Z,2.45
2022-08-26T18:41:31.587Z,2.33
2022-08-26T18:44:00.299Z,1.50
2022-08-26T18:46:28.342Z,2.30
2022-08-26T18:48:57.444Z,1.85
2022-08-26T18:51:29.990Z,2.28
2022-08-26T18:54:01.232Z,1.95
2022-08-26T18:56:29.884Z,3.25
2022-08-26T18:58:58.396Z,2.20
2022-08-26T19:01:27.808Z,2.53
2022-08-26T19:04:00.116Z,2.42
2022-08-26T19:06:31.597Z,2.13
2022-08-26T19:09:00.280Z,2.70
2022-08-26T19:11:32.452Z,2.17
2022-08-26T19:14:13.593Z,2.83
2022-08-26T19:16:44.625Z,2.92
2022-08-26T19:19:13.248Z,3.60
2022-08-26T19:21:55.522Z,3.33
2022-08-26T19:24:25.997Z,3.20
2022-08-26T19:27:00.091Z,3.03
2022-08-26T19:29:33.224Z,2.90
2022-08-26T19:32:02.098Z,3.08
2022-08-26T19:34:29.899Z,2.78
2022-08-26T19:36:58.804Z,2.83
2022-08-26T19:39:26.935Z,3.20
2022-08-26T19:41:54.194Z,3.10
2022-08-26T19:44:41.628Z,3.38
2022-08-26T19:47:10.531Z,3.53
2022-08-26T19:49:38.255Z,4.32
2022-08-26T19:52:06.543Z,4.25
2022-08-26T19:54:36.175Z,3.60
2022-08-26T19:57:04.068Z,5.15
2022-08-26T19:59:33.102Z,6.00
2022-08-26T20:02:01.341Z,6.72
2022-08-26T20:04:31.248Z,7.10
2022-08-26T20:07:01.951Z,6.15
2022-08-26T20:09:31.035Z,7.25
2022-08-26T20:11:58.797Z,7.10
2022-08-26T20:14:30.305Z,7.63
2022-08-26T20:16:57.857Z,7.65
2022-08-26T20:19:46.110Z,6.63
2022-08-26T20:22:18.880Z,7.38
2022-08-26T20:24:47.163Z,7.55
2022-08-26T20:27:15.579Z,7.55
2022-08-26T20:29:43.133Z,7.65
2022-08-26T20:32:11.936Z,6.88
2022-08-26T20:34:40.387Z,6.30
2022-08-26T20:37:08.529Z,7.55
2022-08-26T20:39:35.925Z,6.97
2022-08-26T20:42:04.310Z,6.22
2022-08-26T20:44:32.715Z,7.43
2022-08-26T20:47:02.485Z,7.57
2022-08-26T20:49:31.097Z,7.00
2022-08-26T20:52:00.248Z,6.13
2022-08-26T20:54:28.601Z,6.10
2022-08-26T20:56:58.211Z,5.53
2022-08-26T20:59:26.439Z,5.78
2022-08-26T21:01:53.983Z,5.93
2022-08-26T21:04:27.496Z,5.38
2022-08-26T21:06:55.706Z,5.07
2022-08-26T21:09:25.090Z,4.88
2022-08-26T21:11:53.846Z,4.85
2022-08-26T21:14:22.935Z,5.28
2022-08-26T21:16:53.625Z,5.03
2022-08-26T21:19:21.062Z,4.38
2022-08-26T21:21:50.762Z,4.18
2022-08-26T21:24:18.129Z,3.95
2022-08-26T21:26:46.104Z,3.83
2022-08-26T21:29:13.989Z,3.85
2022-08-26T21:31:46.505Z,3.83
2022-08-26T21:34:17.732Z,4.28
2022-08-26T21:36:52.520Z,4.18
2022-08-26T21:39:19.936Z,4.30
2022-08-26T21:41:47.341Z,4.60
2022-08-26T21:44:16.713Z,3.65
2022-08-26T21:46:45.669Z,3.80
2022-08-26T21:49:15.941Z,3.13
2022-08-26T21:51:47.492Z,3.63
2022-08-26T21:54:15.653Z,4.25
2022-08-26T21:56:46.816Z,3.08
2022-08-26T21:59:18.279Z,4.75
2022-08-26T22:01:48.643Z,5.32
2022-08-26T22:04:17.172Z,4.18
2022-08-26T22:06:51.862Z,3.75
2022-08-26T22:09:23.157Z,4.40
2022-08-26T22:11:51.318Z,4.50
2022-08-26T22:14:30.427Z,5.53
2022-08-26T22:16:59.567Z,4.63
2022-08-26T22:19:26.990Z,4.60
2022-08-26T22:21:55.711Z,4.13
2022-08-26T22:24:25.967Z,5.13
2022-08-26T22:26:54.680Z,4.10
2022-08-26T22:29:22.530Z,4.25
2022-08-26T22:31:49.809Z,3.42
2022-08-26T22:34:19.481Z,3.35
2022-08-26T22:36:49.108Z,3.33
2022-08-26T22:39:22.108Z,3.92
2022-08-26T22:41:49.933Z,4.03
2022-08-26T22:44:20.488Z,4.75
2022-08-26T22:46:50.310Z,3.45
2022-08-26T22:49:17.768Z,3.00
2022-08-26T22:51:46.436Z,3.20
2022-08-26T22:54:15.559Z,2.58
2022-08-26T22:56:45.060Z,2.90
2022-08-26T22:59:13.127Z,3.00
2022-08-26T23:01:43.502Z,3.90
2022-08-26T23:04:11.169Z,3.90
2022-08-26T23:06:43.250Z,3.95
2022-08-26T23:09:18.222Z,3.58
2022-08-26T23:11:47.545Z,3.08
2022-08-26T23:14:16.991Z,3.65
2022-08-26T23:16:44.393Z,2.90
2022-08-26T23:19:14.515Z,3.28
2022-08-26T23:21:42.268Z,2.83
2022-08-26T23:24:10.139Z,2.95
2022-08-26T23:26:38.812Z,3.30
2022-08-26T23:29:08.761Z,2.92
2022-08-26T23:31:38.729Z,3.08
2022-08-26T23:34:24.921Z,2.63
2022-08-26T23:36:52.825Z,3.15
2022-08-26T23:39:21.175Z,3.40
2022-08-26T23:41:48.292Z,2.97
2022-08-26T23:44:15.321Z,2.85
2022-08-26T23:46:43.085Z,2.83
2022-08-26T23:49:10.503Z,3.00
2022-08-26T23:51:56.964Z,3.38
2022-08-26T23:54:24.264Z,2.60
2022-08-26T23:56:51.327Z,3.22
2022-08-26T23:59:18.397Z,3.00
